EZY959N EGKK-EGPH
Flight info
| Callsign | EZY959N |
|---|---|
| Flight time | 0h 59m |
| Altitude | 36000 |
| Route | LAM L10 BPK UN601 RIBEL DCT INPIP |
| Aircraft | A320/M-SDE2E3FGHIRWXY/LB1 |
Departure
| Time | 2026-05-05 17:31 |
|---|---|
| Airport | London Gatwick Airport (EGKK) |
Arrival
| Time | 2026-05-05 18:30 |
|---|---|
| Airport | Edinburgh Airport (EGPH) |
| Time | Latitude | Longitude | Altitude | Speed | Heading |
|---|---|---|---|---|---|
| 2026-05-05 16:57 | 51.15583 | -0.17685 | 205 ft | 0 kts | 348° |
| 2026-05-05 17:19 | 51.15576 | -0.17683 | 216 ft | 3 kts | 346° |
| 2026-05-05 17:19 | 51.15556 | -0.17674 | 217 ft | 3 kts | 337° |
| 2026-05-05 17:19 | 51.15539 | -0.17660 | 207 ft | 3 kts | 321° |
| 2026-05-05 17:20 | 51.15526 | -0.17638 | 213 ft | 3 kts | 287° |
| 2026-05-05 17:20 | 51.15524 | -0.17621 | 214 ft | 1 kts | 258° |
| 2026-05-05 17:20 | 51.15524 | -0.17620 | 214 ft | 0 kts | 258° |
| 2026-05-05 17:23 | 51.15523 | -0.17627 | 215 ft | 4 kts | 258° |
| 2026-05-05 17:23 | 51.15514 | -0.17692 | 211 ft | 10 kts | 258° |
| 2026-05-05 17:23 | 51.15491 | -0.17863 | 205 ft | 22 kts | 257° |
| 2026-05-05 17:24 | 51.15457 | -0.18107 | 210 ft | 21 kts | 258° |
| 2026-05-05 17:24 | 51.15438 | -0.18243 | 205 ft | 11 kts | 257° |
| 2026-05-05 17:24 | 51.15390 | -0.18279 | 205 ft | 11 kts | 168° |
| 2026-05-05 17:24 | 51.15274 | -0.18238 | 206 ft | 19 kts | 167° |
| 2026-05-05 17:25 | 51.15185 | -0.18252 | 205 ft | 6 kts | 229° |
| 2026-05-05 17:25 | 51.15181 | -0.18294 | 205 ft | 5 kts | 271° |
| 2026-05-05 17:25 | 51.15181 | -0.18316 | 205 ft | 5 kts | 272° |
| 2026-05-05 17:25 | 51.15171 | -0.18441 | 212 ft | 17 kts | 254° |
| 2026-05-05 17:26 | 51.15138 | -0.18683 | 207 ft | 26 kts | 256° |
| 2026-05-05 17:26 | 51.15097 | -0.18977 | 210 ft | 28 kts | 258° |
| 2026-05-05 17:26 | 51.15055 | -0.19284 | 214 ft | 29 kts | 257° |
| 2026-05-05 17:26 | 51.15011 | -0.19606 | 210 ft | 30 kts | 257° |
| 2026-05-05 17:27 | 51.14967 | -0.19943 | 207 ft | 32 kts | 257° |
| 2026-05-05 17:27 | 51.14916 | -0.20294 | 205 ft | 33 kts | 257° |
| 2026-05-05 17:27 | 51.14864 | -0.20656 | 205 ft | 33 kts | 258° |
| 2026-05-05 17:27 | 51.14822 | -0.20972 | 209 ft | 27 kts | 257° |
| 2026-05-05 17:28 | 51.14785 | -0.21195 | 206 ft | 18 kts | 249° |
| 2026-05-05 17:28 | 51.14758 | -0.21367 | 207 ft | 14 kts | 255° |
| 2026-05-05 17:28 | 51.14731 | -0.21407 | 213 ft | 0 kts | 196° |
| 2026-05-05 17:28 | 51.14711 | -0.21406 | 211 ft | 10 kts | 171° |
| 2026-05-05 17:29 | 51.14632 | -0.21331 | 208 ft | 14 kts | 158° |
| 2026-05-05 17:29 | 51.14540 | -0.21271 | 212 ft | 15 kts | 135° |
| 2026-05-05 17:29 | 51.14526 | -0.21129 | 214 ft | 10 kts | 77° |
| 2026-05-05 17:29 | 51.14532 | -0.21086 | 207 ft | 0 kts | 77° |
| 2026-05-05 17:30 | 51.14537 | -0.21049 | 212 ft | 22 kts | 77° |
| 2026-05-05 17:30 | 51.14625 | -0.20407 | 214 ft | 93 kts | 77° |
| 2026-05-05 17:30 | 51.14807 | -0.19097 | 210 ft | 147 kts | 78° |
| 2026-05-05 17:30 | 51.15031 | -0.17411 | 695 ft | 153 kts | 78° |
| 2026-05-05 17:31 | 51.15254 | -0.15767 | 1443 ft | 152 kts | 77° |
| 2026-05-05 17:31 | 51.15483 | -0.14102 | 2012 ft | 158 kts | 76° |
| 2026-05-05 17:31 | 51.15738 | -0.12272 | 2317 ft | 180 kts | 76° |
| 2026-05-05 17:31 | 51.16027 | -0.10200 | 2617 ft | 203 kts | 76° |
| 2026-05-05 17:32 | 51.16360 | -0.07884 | 2942 ft | 227 kts | 72° |
| 2026-05-05 17:32 | 51.17127 | -0.05571 | 3378 ft | 247 kts | 51° |
| 2026-05-05 17:32 | 51.18201 | -0.03365 | 4189 ft | 255 kts | 51° |
| 2026-05-05 17:32 | 51.19302 | -0.01103 | 4796 ft | 262 kts | 50° |
| 2026-05-05 17:33 | 51.20415 | 0.01194 | 5030 ft | 261 kts | 50° |
| 2026-05-05 17:33 | 51.21515 | 0.03469 | 5079 ft | 259 kts | 50° |
| 2026-05-05 17:33 | 51.22616 | 0.05752 | 5090 ft | 259 kts | 50° |
| 2026-05-05 17:33 | 51.23716 | 0.08042 | 5192 ft | 262 kts | 50° |
| 2026-05-05 17:34 | 51.24744 | 0.10449 | 6096 ft | 265 kts | 61° |
| 2026-05-05 17:34 | 51.25310 | 0.13236 | 6956 ft | 272 kts | 77° |
| 2026-05-05 17:34 | 51.25663 | 0.16227 | 7832 ft | 276 kts | 77° |
| 2026-05-05 17:34 | 51.26115 | 0.19218 | 8676 ft | 279 kts | 64° |
| 2026-05-05 17:35 | 51.27222 | 0.21679 | 9446 ft | 281 kts | 39° |
| 2026-05-05 17:35 | 51.28817 | 0.23519 | 10226 ft | 285 kts | 32° |
| 2026-05-05 17:35 | 51.30555 | 0.25305 | 10528 ft | 308 kts | 31° |
| 2026-05-05 17:35 | 51.32248 | 0.27547 | 10942 ft | 325 kts | 51° |
| 2026-05-05 17:36 | 51.33287 | 0.30765 | 11511 ft | 331 kts | 74° |
| 2026-05-05 17:36 | 51.33705 | 0.34402 | 12280 ft | 334 kts | 81° |
| 2026-05-05 17:36 | 51.34041 | 0.38110 | 12777 ft | 339 kts | 81° |
| 2026-05-05 17:36 | 51.34581 | 0.41749 | 12931 ft | 337 kts | 66° |
| 2026-05-05 17:37 | 51.35947 | 0.44795 | 13513 ft | 341 kts | 42° |
| 2026-05-05 17:37 | 51.37963 | 0.46786 | 14217 ft | 344 kts | 20° |
| 2026-05-05 17:37 | 51.40318 | 0.47432 | 14884 ft | 347 kts | 358° |
| 2026-05-05 17:37 | 51.42683 | 0.46630 | 15528 ft | 351 kts | 337° |
| 2026-05-05 17:38 | 51.44869 | 0.44845 | 16204 ft | 354 kts | 332° |
| 2026-05-05 17:38 | 51.46979 | 0.42788 | 16881 ft | 357 kts | 322° |
| 2026-05-05 17:38 | 51.48892 | 0.40218 | 17543 ft | 359 kts | 321° |
| 2026-05-05 17:38 | 51.50805 | 0.37612 | 18195 ft | 363 kts | 320° |
| 2026-05-05 17:39 | 51.52734 | 0.34975 | 18716 ft | 366 kts | 320° |
| 2026-05-05 17:39 | 51.54673 | 0.32317 | 18897 ft | 367 kts | 320° |
| 2026-05-05 17:39 | 51.56614 | 0.29652 | 18944 ft | 368 kts | 320° |
| 2026-05-05 17:39 | 51.58568 | 0.26965 | 19333 ft | 370 kts | 320° |
| 2026-05-05 17:40 | 51.60534 | 0.24257 | 19935 ft | 372 kts | 319° |
| 2026-05-05 17:40 | 51.62506 | 0.21538 | 20489 ft | 375 kts | 319° |
| 2026-05-05 17:40 | 51.64493 | 0.18797 | 21089 ft | 377 kts | 319° |
| 2026-05-05 17:40 | 51.66492 | 0.16038 | 21643 ft | 380 kts | 319° |
| 2026-05-05 17:41 | 51.68507 | 0.13253 | 22167 ft | 384 kts | 319° |
| 2026-05-05 17:41 | 51.70543 | 0.10432 | 22750 ft | 386 kts | 318° |
| 2026-05-05 17:41 | 51.72590 | 0.07594 | 23263 ft | 390 kts | 318° |
| 2026-05-05 17:41 | 51.74651 | 0.04732 | 23753 ft | 393 kts | 318° |
| 2026-05-05 17:42 | 51.76733 | 0.01854 | 24193 ft | 396 kts | 318° |
| 2026-05-05 17:42 | 51.78830 | -0.01062 | 24629 ft | 400 kts | 318° |
| 2026-05-05 17:42 | 51.80939 | -0.04006 | 25038 ft | 403 kts | 317° |
| 2026-05-05 17:42 | 51.83064 | -0.06979 | 25451 ft | 405 kts | 316° |
| 2026-05-05 17:43 | 51.85202 | -0.09974 | 25788 ft | 408 kts | 316° |
| 2026-05-05 17:43 | 51.87357 | -0.12997 | 26180 ft | 411 kts | 316° |
| 2026-05-05 17:43 | 51.89530 | -0.16041 | 26543 ft | 415 kts | 316° |
| 2026-05-05 17:43 | 51.91715 | -0.19103 | 26896 ft | 418 kts | 316° |
| 2026-05-05 17:44 | 51.93913 | -0.22184 | 27245 ft | 421 kts | 316° |
| 2026-05-05 17:44 | 51.96131 | -0.25301 | 27591 ft | 424 kts | 316° |
| 2026-05-05 17:44 | 51.98365 | -0.28449 | 27930 ft | 427 kts | 316° |
| 2026-05-05 17:44 | 52.00614 | -0.31624 | 28263 ft | 430 kts | 316° |
| 2026-05-05 17:45 | 52.02876 | -0.34824 | 28596 ft | 433 kts | 316° |
| 2026-05-05 17:45 | 52.05153 | -0.38049 | 28929 ft | 436 kts | 315° |
| 2026-05-05 17:45 | 52.07443 | -0.41278 | 29272 ft | 438 kts | 317° |
| 2026-05-05 17:45 | 52.09943 | -0.44170 | 29585 ft | 445 kts | 326° |
| 2026-05-05 17:46 | 52.12616 | -0.46746 | 29890 ft | 448 kts | 326° |
| 2026-05-05 17:46 | 52.15302 | -0.49340 | 30164 ft | 450 kts | 326° |
| 2026-05-05 17:46 | 52.18000 | -0.51952 | 30426 ft | 452 kts | 326° |
| 2026-05-05 17:46 | 52.20708 | -0.54580 | 30691 ft | 454 kts | 326° |
| 2026-05-05 17:47 | 52.23420 | -0.57215 | 30951 ft | 455 kts | 326° |
| 2026-05-05 17:47 | 52.26147 | -0.59870 | 31206 ft | 457 kts | 326° |
| 2026-05-05 17:47 | 52.28880 | -0.62536 | 31502 ft | 457 kts | 326° |
| 2026-05-05 17:47 | 52.31567 | -0.65158 | 31917 ft | 454 kts | 326° |
| 2026-05-05 17:48 | 52.34273 | -0.67806 | 32314 ft | 452 kts | 326° |
| 2026-05-05 17:48 | 52.36970 | -0.70445 | 32686 ft | 451 kts | 326° |
| 2026-05-05 17:48 | 52.39653 | -0.73077 | 33045 ft | 450 kts | 326° |
| 2026-05-05 17:48 | 52.42334 | -0.75715 | 33404 ft | 449 kts | 326° |
| 2026-05-05 17:49 | 52.45009 | -0.78345 | 33762 ft | 448 kts | 326° |
| 2026-05-05 17:49 | 52.47679 | -0.80969 | 34099 ft | 447 kts | 326° |
| 2026-05-05 17:49 | 52.50341 | -0.83596 | 34380 ft | 446 kts | 326° |
| 2026-05-05 17:49 | 52.52999 | -0.86221 | 34656 ft | 445 kts | 327° |
| 2026-05-05 17:50 | 52.55650 | -0.88841 | 34948 ft | 444 kts | 326° |
| 2026-05-05 17:50 | 52.58288 | -0.91458 | 35212 ft | 443 kts | 326° |
| 2026-05-05 17:50 | 52.60930 | -0.94084 | 35459 ft | 443 kts | 326° |
| 2026-05-05 17:50 | 52.63570 | -0.96712 | 35688 ft | 443 kts | 327° |
| 2026-05-05 17:51 | 52.66207 | -0.99336 | 35902 ft | 444 kts | 327° |
| 2026-05-05 17:51 | 52.71459 | -1.04574 | 35995 ft | 438 kts | 327° |
| 2026-05-05 17:52 | 52.76653 | -1.09772 | 36008 ft | 436 kts | 326° |
| 2026-05-05 17:52 | 52.81840 | -1.14962 | 35999 ft | 435 kts | 326° |
| 2026-05-05 17:53 | 52.87014 | -1.20161 | 36001 ft | 436 kts | 327° |
| 2026-05-05 17:53 | 52.92192 | -1.25378 | 36001 ft | 436 kts | 327° |
| 2026-05-05 17:54 | 52.97367 | -1.30627 | 36005 ft | 436 kts | 327° |
| 2026-05-05 17:54 | 53.02504 | -1.35847 | 36015 ft | 436 kts | 327° |
| 2026-05-05 17:55 | 53.07675 | -1.41105 | 36015 ft | 436 kts | 327° |
| 2026-05-05 17:55 | 53.12842 | -1.46380 | 36017 ft | 435 kts | 326° |
| 2026-05-05 17:56 | 53.18001 | -1.51658 | 36017 ft | 435 kts | 326° |
| 2026-05-05 17:56 | 53.23156 | -1.56938 | 36021 ft | 434 kts | 327° |
| 2026-05-05 17:57 | 53.28293 | -1.62227 | 36034 ft | 433 kts | 326° |
| 2026-05-05 17:57 | 53.33422 | -1.67512 | 36027 ft | 433 kts | 327° |
| 2026-05-05 17:58 | 53.38541 | -1.72799 | 36026 ft | 432 kts | 327° |
| 2026-05-05 17:58 | 53.43641 | -1.78099 | 36025 ft | 432 kts | 326° |
| 2026-05-05 17:59 | 53.48740 | -1.83406 | 36022 ft | 432 kts | 327° |
| 2026-05-05 17:59 | 53.53846 | -1.88726 | 36024 ft | 432 kts | 326° |
| 2026-05-05 18:00 | 53.58084 | -1.93154 | 36022 ft | 432 kts | 325° |
| 2026-05-05 18:00 | 53.64014 | -1.99373 | 36024 ft | 432 kts | 326° |
| 2026-05-05 18:01 | 53.69108 | -2.04749 | 36026 ft | 432 kts | 325° |
| 2026-05-05 18:01 | 53.74230 | -2.10060 | 36036 ft | 433 kts | 331° |
| 2026-05-05 18:02 | 53.79796 | -2.14001 | 36040 ft | 434 kts | 336° |
| 2026-05-05 18:02 | 53.85395 | -2.17817 | 36043 ft | 434 kts | 336° |
| 2026-05-05 18:03 | 53.90983 | -2.21657 | 36039 ft | 433 kts | 335° |
| 2026-05-05 18:03 | 53.96572 | -2.25498 | 36040 ft | 433 kts | 335° |
| 2026-05-05 18:04 | 54.02154 | -2.29346 | 36048 ft | 433 kts | 335° |
| 2026-05-05 18:04 | 54.07702 | -2.33173 | 36039 ft | 433 kts | 335° |
| 2026-05-05 18:05 | 54.13280 | -2.37017 | 36041 ft | 433 kts | 335° |
| 2026-05-05 18:05 | 54.18853 | -2.40880 | 36037 ft | 432 kts | 335° |
| 2026-05-05 18:06 | 54.24426 | -2.44764 | 36054 ft | 432 kts | 334° |
| 2026-05-05 18:06 | 54.29987 | -2.48655 | 35931 ft | 433 kts | 334° |
| 2026-05-05 18:06 | 54.32780 | -2.50614 | 35475 ft | 432 kts | 334° |
| 2026-05-05 18:07 | 54.35554 | -2.52558 | 35031 ft | 429 kts | 334° |
| 2026-05-05 18:07 | 54.38301 | -2.54485 | 34601 ft | 426 kts | 334° |
| 2026-05-05 18:07 | 54.41034 | -2.56407 | 34157 ft | 423 kts | 334° |
| 2026-05-05 18:07 | 54.43745 | -2.58317 | 33684 ft | 420 kts | 334° |
| 2026-05-05 18:08 | 54.46437 | -2.60213 | 33190 ft | 417 kts | 334° |
| 2026-05-05 18:08 | 54.49109 | -2.62093 | 32719 ft | 413 kts | 334° |
| 2026-05-05 18:08 | 54.51759 | -2.63960 | 32243 ft | 410 kts | 334° |
| 2026-05-05 18:08 | 54.54387 | -2.65819 | 31777 ft | 407 kts | 333° |
| 2026-05-05 18:09 | 54.56994 | -2.67665 | 31322 ft | 404 kts | 333° |
| 2026-05-05 18:09 | 54.59581 | -2.69500 | 30875 ft | 400 kts | 334° |
| 2026-05-05 18:09 | 54.62144 | -2.71323 | 30431 ft | 397 kts | 334° |
| 2026-05-05 18:09 | 54.64686 | -2.73133 | 29969 ft | 394 kts | 334° |
| 2026-05-05 18:10 | 54.67210 | -2.74929 | 29453 ft | 391 kts | 334° |
| 2026-05-05 18:10 | 54.69709 | -2.76710 | 28941 ft | 388 kts | 334° |
| 2026-05-05 18:10 | 54.72193 | -2.78492 | 28475 ft | 385 kts | 334° |
| 2026-05-05 18:10 | 54.74625 | -2.80243 | 27993 ft | 382 kts | 334° |
| 2026-05-05 18:11 | 54.77069 | -2.81999 | 27570 ft | 378 kts | 334° |
| 2026-05-05 18:11 | 54.79482 | -2.83729 | 27172 ft | 374 kts | 334° |
| 2026-05-05 18:11 | 54.81871 | -2.85442 | 26781 ft | 369 kts | 334° |
| 2026-05-05 18:11 | 54.84233 | -2.87140 | 26395 ft | 366 kts | 334° |
| 2026-05-05 18:12 | 54.86577 | -2.88827 | 25934 ft | 364 kts | 334° |
| 2026-05-05 18:12 | 54.88909 | -2.90507 | 25463 ft | 362 kts | 334° |
| 2026-05-05 18:12 | 54.91232 | -2.92184 | 24997 ft | 361 kts | 334° |
| 2026-05-05 18:12 | 54.93547 | -2.93858 | 24543 ft | 359 kts | 334° |
| 2026-05-05 18:13 | 54.95847 | -2.95528 | 24092 ft | 357 kts | 334° |
| 2026-05-05 18:13 | 54.97389 | -2.96651 | 23813 ft | 356 kts | 334° |
| 2026-05-05 18:13 | 54.99669 | -2.98311 | 23309 ft | 354 kts | 334° |
| 2026-05-05 18:13 | 55.01940 | -2.99965 | 22780 ft | 353 kts | 334° |
| 2026-05-05 18:14 | 55.04171 | -3.01587 | 22282 ft | 351 kts | 334° |
| 2026-05-05 18:14 | 55.06425 | -3.03223 | 21765 ft | 350 kts | 334° |
| 2026-05-05 18:14 | 55.08674 | -3.04854 | 21265 ft | 349 kts | 334° |
| 2026-05-05 18:14 | 55.10909 | -3.06482 | 20775 ft | 348 kts | 334° |
| 2026-05-05 18:15 | 55.13142 | -3.08113 | 20297 ft | 347 kts | 334° |
| 2026-05-05 18:15 | 55.15349 | -3.09738 | 20056 ft | 339 kts | 334° |
| 2026-05-05 18:15 | 55.17515 | -3.11350 | 19581 ft | 339 kts | 334° |
| 2026-05-05 18:15 | 55.19680 | -3.12965 | 19087 ft | 339 kts | 334° |
| 2026-05-05 18:16 | 55.21851 | -3.14587 | 18602 ft | 339 kts | 334° |
| 2026-05-05 18:16 | 55.24025 | -3.16206 | 18117 ft | 340 kts | 334° |
| 2026-05-05 18:16 | 55.26199 | -3.17822 | 17576 ft | 340 kts | 334° |
| 2026-05-05 18:16 | 55.28374 | -3.19450 | 17039 ft | 340 kts | 334° |
| 2026-05-05 18:17 | 55.30548 | -3.21085 | 16515 ft | 340 kts | 334° |
| 2026-05-05 18:17 | 55.32719 | -3.22722 | 16002 ft | 339 kts | 334° |
| 2026-05-05 18:17 | 55.34863 | -3.24447 | 15495 ft | 337 kts | 328° |
| 2026-05-05 18:17 | 55.36856 | -3.26592 | 14988 ft | 336 kts | 325° |
| 2026-05-05 18:18 | 55.38818 | -3.28813 | 14497 ft | 335 kts | 324° |
| 2026-05-05 18:18 | 55.40772 | -3.31040 | 14009 ft | 334 kts | 324° |
| 2026-05-05 18:18 | 55.42710 | -3.33260 | 13480 ft | 332 kts | 325° |
| 2026-05-05 18:18 | 55.44637 | -3.35488 | 12945 ft | 330 kts | 324° |
| 2026-05-05 18:19 | 55.46554 | -3.37718 | 12412 ft | 329 kts | 324° |
| 2026-05-05 18:19 | 55.48446 | -3.39923 | 12060 ft | 323 kts | 324° |
| 2026-05-05 18:19 | 55.50298 | -3.42081 | 11702 ft | 317 kts | 324° |
| 2026-05-05 18:19 | 55.52119 | -3.44209 | 11343 ft | 311 kts | 324° |
| 2026-05-05 18:20 | 55.53905 | -3.46303 | 10993 ft | 305 kts | 324° |
| 2026-05-05 18:20 | 55.55659 | -3.48361 | 10640 ft | 300 kts | 325° |
| 2026-05-05 18:20 | 55.57385 | -3.50389 | 10299 ft | 296 kts | 324° |
| 2026-05-05 18:20 | 55.59088 | -3.52397 | 9955 ft | 292 kts | 324° |
| 2026-05-05 18:21 | 55.60770 | -3.54382 | 9573 ft | 289 kts | 324° |
| 2026-05-05 18:21 | 55.62403 | -3.56321 | 9192 ft | 276 kts | 324° |
| 2026-05-05 18:21 | 55.63955 | -3.58165 | 8813 ft | 261 kts | 324° |
| 2026-05-05 18:21 | 55.65427 | -3.59924 | 8441 ft | 249 kts | 324° |
| 2026-05-05 18:22 | 55.66831 | -3.61603 | 8081 ft | 238 kts | 324° |
| 2026-05-05 18:22 | 55.68155 | -3.63183 | 7719 ft | 227 kts | 324° |
| 2026-05-05 18:22 | 55.69464 | -3.64744 | 7379 ft | 227 kts | 324° |
| 2026-05-05 18:22 | 55.70791 | -3.66327 | 7021 ft | 227 kts | 324° |
| 2026-05-05 18:23 | 55.72084 | -3.67883 | 6671 ft | 228 kts | 324° |
| 2026-05-05 18:23 | 55.73416 | -3.69406 | 6308 ft | 229 kts | 335° |
| 2026-05-05 18:23 | 55.74942 | -3.70187 | 5934 ft | 229 kts | 348° |
| 2026-05-05 18:23 | 55.76509 | -3.70737 | 5572 ft | 230 kts | 349° |
| 2026-05-05 18:24 | 55.78077 | -3.71288 | 5220 ft | 229 kts | 350° |
| 2026-05-05 18:24 | 55.79624 | -3.71864 | 4984 ft | 224 kts | 349° |
| 2026-05-05 18:24 | 55.81154 | -3.72030 | 4719 ft | 219 kts | 9° |
| 2026-05-05 18:24 | 55.82587 | -3.71283 | 4494 ft | 212 kts | 28° |
| 2026-05-05 18:25 | 55.83761 | -3.69779 | 4259 ft | 206 kts | 48° |
| 2026-05-05 18:25 | 55.84338 | -3.68464 | 4080 ft | 203 kts | 59° |
| 2026-05-05 18:25 | 55.85317 | -3.65610 | 3721 ft | 201 kts | 59° |
| 2026-05-05 18:25 | 55.86045 | -3.63492 | 3450 ft | 200 kts | 60° |
| 2026-05-05 18:26 | 55.86767 | -3.61389 | 3165 ft | 194 kts | 60° |
| 2026-05-05 18:26 | 55.87444 | -3.59414 | 2933 ft | 180 kts | 60° |
| 2026-05-05 18:26 | 55.88071 | -3.57587 | 2659 ft | 165 kts | 61° |
| 2026-05-05 18:26 | 55.88645 | -3.55908 | 2445 ft | 152 kts | 62° |
| 2026-05-05 18:27 | 55.89170 | -3.54372 | 2241 ft | 139 kts | 62° |
| 2026-05-05 18:27 | 55.89656 | -3.52950 | 2050 ft | 130 kts | 62° |
| 2026-05-05 18:27 | 55.90115 | -3.51605 | 1890 ft | 125 kts | 62° |
| 2026-05-05 18:27 | 55.90562 | -3.50295 | 1715 ft | 122 kts | 63° |
| 2026-05-05 18:28 | 55.91447 | -3.47696 | 1359 ft | 124 kts | 60° |
| 2026-05-05 18:28 | 55.91901 | -3.46390 | 1177 ft | 125 kts | 62° |
| 2026-05-05 18:28 | 55.92349 | -3.45059 | 1018 ft | 124 kts | 63° |
| 2026-05-05 18:29 | 55.92797 | -3.43731 | 836 ft | 128 kts | 62° |
| 2026-05-05 18:29 | 55.93261 | -3.42406 | 631 ft | 127 kts | 64° |
| 2026-05-05 18:29 | 55.93709 | -3.41067 | 460 ft | 127 kts | 63° |
| 2026-05-05 18:29 | 55.94155 | -3.39748 | 264 ft | 124 kts | 62° |
| 2026-05-05 18:30 | 55.94600 | -3.38427 | 142 ft | 124 kts | 62° |
| 2026-05-05 18:30 | 55.95000 | -3.37235 | 112 ft | 91 kts | 58° |
| 2026-05-05 18:30 | 55.95228 | -3.36574 | 112 ft | 29 kts | 58° |
| 2026-05-05 18:30 | 55.95241 | -3.36398 | 112 ft | 13 kts | 144° |
| 2026-05-05 18:31 | 55.95183 | -3.36337 | 115 ft | 7 kts | 147° |
| 2026-05-05 18:31 | 55.95175 | -3.36328 | 113 ft | 0 kts | 148° |
| 2026-05-05 18:32 | 55.95171 | -3.36323 | 113 ft | 5 kts | 149° |
| 2026-05-05 18:32 | 55.95130 | -3.36201 | 114 ft | 14 kts | 105° |
| 2026-05-05 18:32 | 55.95099 | -3.36024 | 116 ft | 16 kts | 108° |
| 2026-05-05 18:33 | 55.95046 | -3.35855 | 113 ft | 12 kts | 138° |
| 2026-05-05 18:33 | 55.94969 | -3.35863 | 116 ft | 11 kts | 189° |
| 2026-05-05 18:33 | 55.94911 | -3.35794 | 113 ft | 10 kts | 118° |
| 2026-05-05 18:33 | 55.94872 | -3.35768 | 115 ft | 6 kts | 207° |
| 2026-05-05 18:34 | 55.94840 | -3.35800 | 115 ft | 2 kts | 208° |
| 2026-05-05 18:34 | 55.94836 | -3.35805 | 114 ft | 0 kts | 208° |